sensor_id;sensor_type;location;lat;lon;timestamp;P1;P2;P0
70241;PMS5003;57631;52.218;0.108;2022-11-15T00:01:40;5;5;
70241;PMS5003;57631;52.218;0.108;2022-11-15T00:04:06;5;4;
70241;PMS5003;57631;52.218;0.108;2022-11-15T00:06:31;6;4;
70241;PMS5003;57631;52.218;0.108;2022-11-15T00:08:57;10;6;
70241;PMS5003;57631;52.218;0.108;2022-11-15T00:11:22;8;5;
70241;PMS5003;57631;52.218;0.108;2022-11-15T00:13:47;8;8;
70241;PMS5003;57631;52.218;0.108;2022-11-15T00:16:13;7;6;
70241;PMS5003;57631;52.218;0.108;2022-11-15T00:18:38;4;4;
70241;PMS5003;57631;52.218;0.108;2022-11-15T00:21:04;6;5;
70241;PMS5003;57631;52.218;0.108;2022-11-15T00:23:29;5;5;
70241;PMS5003;57631;52.218;0.108;2022-11-15T00:25:56;4;4;
70241;PMS5003;57631;52.218;0.108;2022-11-15T00:28:20;4;4;
70241;PMS5003;57631;52.218;0.108;2022-11-15T00:30:45;5;4;
70241;PMS5003;57631;52.218;0.108;2022-11-15T00:33:11;6;4;
70241;PMS5003;57631;52.218;0.108;2022-11-15T00:35:36;5;3;
70241;PMS5003;57631;52.218;0.108;2022-11-15T00:38:01;3;3;
70241;PMS5003;57631;52.218;0.108;2022-11-15T00:40:27;5;4;
70241;PMS5003;57631;52.218;0.108;2022-11-15T00:42:52;4;4;
70241;PMS5003;57631;52.218;0.108;2022-11-15T00:45:17;7;5;
70241;PMS5003;57631;52.218;0.108;2022-11-15T00:47:43;4;3;
70241;PMS5003;57631;52.218;0.108;2022-11-15T00:50:08;8;4;
70241;PMS5003;57631;52.218;0.108;2022-11-15T00:52:34;4;4;
70241;PMS5003;57631;52.218;0.108;2022-11-15T00:55:00;7;5;
70241;PMS5003;57631;52.218;0.108;2022-11-15T00:57:25;6;5;
70241;PMS5003;57631;52.218;0.108;2022-11-15T00:59:50;8;5;
70241;PMS5003;57631;52.218;0.108;2022-11-15T01:02:16;6;3;
70241;PMS5003;57631;52.218;0.108;2022-11-15T01:04:41;7;4;
70241;PMS5003;57631;52.218;0.108;2022-11-15T01:07:07;7;5;
70241;PMS5003;57631;52.218;0.108;2022-11-15T01:09:32;3;3;
70241;PMS5003;57631;52.218;0.108;2022-11-15T01:11:58;3;3;
70241;PMS5003;57631;52.218;0.108;2022-11-15T01:14:23;9;4;
70241;PMS5003;57631;52.218;0.108;2022-11-15T01:16:48;7;4;
70241;PMS5003;57631;52.218;0.108;2022-11-15T01:19:14;4;4;
70241;PMS5003;57631;52.218;0.108;2022-11-15T01:21:40;5;4;
70241;PMS5003;57631;52.218;0.108;2022-11-15T01:24:05;4;3;
70241;PMS5003;57631;52.218;0.108;2022-11-15T01:26:30;3;3;
70241;PMS5003;57631;52.218;0.108;2022-11-15T01:28:56;4;3;
70241;PMS5003;57631;52.218;0.108;2022-11-15T01:31:21;4;2;
70241;PMS5003;57631;52.218;0.108;2022-11-15T01:33:47;3;3;
70241;PMS5003;57631;52.218;0.108;2022-11-15T01:36:13;6;3;
70241;PMS5003;57631;52.218;0.108;2022-11-15T01:38:38;2;2;
70241;PMS5003;57631;52.218;0.108;2022-11-15T01:41:03;5;2;
70241;PMS5003;57631;52.218;0.108;2022-11-15T01:43:30;3;3;
70241;PMS5003;57631;52.218;0.108;2022-11-15T01:45:55;4;3;
70241;PMS5003;57631;52.218;0.108;2022-11-15T01:48:20;2;2;
70241;PMS5003;57631;52.218;0.108;2022-11-15T01:50:45;3;3;
70241;PMS5003;57631;52.218;0.108;2022-11-15T01:53:11;5;2;
70241;PMS5003;57631;52.218;0.108;2022-11-15T01:55:36;6;4;
70241;PMS5003;57631;52.218;0.108;2022-11-15T01:58:02;2;2;
70241;PMS5003;57631;52.218;0.108;2022-11-15T02:00:28;7;3;
70241;PMS5003;57631;52.218;0.108;2022-11-15T02:02:53;5;4;
70241;PMS5003;57631;52.218;0.108;2022-11-15T02:05:18;5;4;
70241;PMS5003;57631;52.218;0.108;2022-11-15T02:07:44;4;3;
70241;PMS5003;57631;52.218;0.108;2022-11-15T02:10:10;7;4;
70241;PMS5003;57631;52.218;0.108;2022-11-15T02:12:35;4;3;
70241;PMS5003;57631;52.218;0.108;2022-11-15T02:15:00;4;4;
70241;PMS5003;57631;52.218;0.108;2022-11-15T02:17:32;4;4;
70241;PMS5003;57631;52.218;0.108;2022-11-15T02:22:21;6;3;
70241;PMS5003;57631;52.218;0.108;2022-11-15T02:24:47;2;2;
70241;PMS5003;57631;52.218;0.108;2022-11-15T02:29:37;6;3;
70241;PMS5003;57631;52.218;0.108;2022-11-15T02:31:59;2;2;
70241;PMS5003;57631;52.218;0.108;2022-11-15T02:34:25;3;0;
70241;PMS5003;57631;52.218;0.108;2022-11-15T02:36:52;3;3;
70241;PMS5003;57631;52.218;0.108;2022-11-15T02:39:17;2;2;
70241;PMS5003;57631;52.218;0.108;2022-11-15T02:41:41;3;3;
70241;PMS5003;57631;52.218;0.108;2022-11-15T02:44:07;5;2;
70241;PMS5003;57631;52.218;0.108;2022-11-15T02:46:32;3;3;
70241;PMS5003;57631;52.218;0.108;2022-11-15T02:48:56;7;3;
70241;PMS5003;57631;52.218;0.108;2022-11-15T02:51:21;9;4;
70241;PMS5003;57631;52.218;0.108;2022-11-15T02:53:47;6;3;
70241;PMS5003;57631;52.218;0.108;2022-11-15T02:56:12;5;2;
70241;PMS5003;57631;52.218;0.108;2022-11-15T02:58:43;2;2;
70241;PMS5003;57631;52.218;0.108;2022-11-15T03:01:04;4;2;
70241;PMS5003;57631;52.218;0.108;2022-11-15T03:03:34;7;4;
70241;PMS5003;57631;52.218;0.108;2022-11-15T03:05:56;5;2;
70241;PMS5003;57631;52.218;0.108;2022-11-15T03:08:22;5;3;
70241;PMS5003;57631;52.218;0.108;2022-11-15T03:10:46;6;3;
70241;PMS5003;57631;52.218;0.108;2022-11-15T03:13:14;4;3;
70241;PMS5003;57631;52.218;0.108;2022-11-15T03:15:37;5;4;
70241;PMS5003;57631;52.218;0.108;2022-11-15T03:18:02;6;2;
70241;PMS5003;57631;52.218;0.108;2022-11-15T03:20:27;13;10;
70241;PMS5003;57631;52.218;0.108;2022-11-15T03:22:52;3;2;
70241;PMS5003;57631;52.218;0.108;2022-11-15T03:25:18;5;2;
70241;PMS5003;57631;52.218;0.108;2022-11-15T03:27:44;3;3;
70241;PMS5003;57631;52.218;0.108;2022-11-15T03:30:09;5;4;
70241;PMS5003;57631;52.218;0.108;2022-11-15T03:32:35;5;3;
70241;PMS5003;57631;52.218;0.108;2022-11-15T03:35:00;1;1;
70241;PMS5003;57631;52.218;0.108;2022-11-15T03:37:27;5;2;
70241;PMS5003;57631;52.218;0.108;2022-11-15T03:39:51;3;2;
70241;PMS5003;57631;52.218;0.108;2022-11-15T03:42:18;2;2;
70241;PMS5003;57631;52.218;0.108;2022-11-15T03:44:43;6;4;
70241;PMS5003;57631;52.218;0.108;2022-11-15T03:47:08;5;2;
70241;PMS5003;57631;52.218;0.108;2022-11-15T03:49:33;6;3;
70241;PMS5003;57631;52.218;0.108;2022-11-15T03:51:58;4;4;
70241;PMS5003;57631;52.218;0.108;2022-11-15T03:54:23;2;2;
70241;PMS5003;57631;52.218;0.108;2022-11-15T03:56:49;4;2;
70241;PMS5003;57631;52.218;0.108;2022-11-15T03:59:14;6;3;
70241;PMS5003;57631;52.218;0.108;2022-11-15T04:01:40;4;3;
70241;PMS5003;57631;52.218;0.108;2022-11-15T04:04:05;4;2;
70241;PMS5003;57631;52.218;0.108;2022-11-15T04:06:31;2;2;
70241;PMS5003;57631;52.218;0.108;2022-11-15T04:08:56;8;4;
70241;PMS5003;57631;52.218;0.108;2022-11-15T04:11:22;5;3;
70241;PMS5003;57631;52.218;0.108;2022-11-15T04:13:47;6;5;
70241;PMS5003;57631;52.218;0.108;2022-11-15T04:16:12;2;2;
70241;PMS5003;57631;52.218;0.108;2022-11-15T04:18:38;2;2;
70241;PMS5003;57631;52.218;0.108;2022-11-15T04:21:03;4;4;
70241;PMS5003;57631;52.218;0.108;2022-11-15T04:23:29;5;3;
70241;PMS5003;57631;52.218;0.108;2022-11-15T04:25:55;2;2;
70241;PMS5003;57631;52.218;0.108;2022-11-15T04:28:20;4;3;
70241;PMS5003;57631;52.218;0.108;2022-11-15T04:30:45;3;3;
70241;PMS5003;57631;52.218;0.108;2022-11-15T04:33:10;5;3;
70241;PMS5003;57631;52.218;0.108;2022-11-15T04:35:36;2;2;
70241;PMS5003;57631;52.218;0.108;2022-11-15T04:38:02;4;3;
70241;PMS5003;57631;52.218;0.108;2022-11-15T04:40:27;6;2;
70241;PMS5003;57631;52.218;0.108;2022-11-15T04:42:53;5;3;
70241;PMS5003;57631;52.218;0.108;2022-11-15T04:45:18;6;3;
70241;PMS5003;57631;52.218;0.108;2022-11-15T04:47:44;1;1;
70241;PMS5003;57631;52.218;0.108;2022-11-15T04:50:09;3;1;
70241;PMS5003;57631;52.218;0.108;2022-11-15T04:52:34;8;4;
70241;PMS5003;57631;52.218;0.108;2022-11-15T04:55:00;3;3;
70241;PMS5003;57631;52.218;0.108;2022-11-15T04:57:25;3;2;
70241;PMS5003;57631;52.218;0.108;2022-11-15T04:59:50;4;3;
70241;PMS5003;57631;52.218;0.108;2022-11-15T05:02:16;4;2;
70241;PMS5003;57631;52.218;0.108;2022-11-15T05:04:41;3;1;
70241;PMS5003;57631;52.218;0.108;2022-11-15T05:07:07;7;3;
70241;PMS5003;57631;52.218;0.108;2022-11-15T05:09:32;3;2;
70241;PMS5003;57631;52.218;0.108;2022-11-15T05:11:58;10;3;
70241;PMS5003;57631;52.218;0.108;2022-11-15T05:14:23;2;2;
70241;PMS5003;57631;52.218;0.108;2022-11-15T05:16:49;2;2;
70241;PMS5003;57631;52.218;0.108;2022-11-15T05:19:14;6;3;
70241;PMS5003;57631;52.218;0.108;2022-11-15T05:21:40;4;1;
70241;PMS5003;57631;52.218;0.108;2022-11-15T05:24:05;4;1;
70241;PMS5003;57631;52.218;0.108;2022-11-15T05:26:31;6;2;
70241;PMS5003;57631;52.218;0.108;2022-11-15T05:28:57;5;2;
70241;PMS5003;57631;52.218;0.108;2022-11-15T05:31:22;4;1;
70241;PMS5003;57631;52.218;0.108;2022-11-15T05:33:48;4;4;
70241;PMS5003;57631;52.218;0.108;2022-11-15T05:36:14;7;2;
70241;PMS5003;57631;52.218;0.108;2022-11-15T05:38:38;7;2;
70241;PMS5003;57631;52.218;0.108;2022-11-15T05:41:04;2;2;
70241;PMS5003;57631;52.218;0.108;2022-11-15T05:43:29;8;3;
70241;PMS5003;57631;52.218;0.108;2022-11-15T05:45:54;3;3;
70241;PMS5003;57631;52.218;0.108;2022-11-15T05:48:20;5;4;
70241;PMS5003;57631;52.218;0.108;2022-11-15T05:50:46;4;3;
70241;PMS5003;57631;52.218;0.108;2022-11-15T05:53:11;7;3;
70241;PMS5003;57631;52.218;0.108;2022-11-15T05:55:36;9;3;
70241;PMS5003;57631;52.218;0.108;2022-11-15T05:58:02;3;2;
70241;PMS5003;57631;52.218;0.108;2022-11-15T06:00:28;7;3;
70241;PMS5003;57631;52.218;0.108;2022-11-15T06:02:53;2;2;
70241;PMS5003;57631;52.218;0.108;2022-11-15T06:05:18;6;4;
70241;PMS5003;57631;52.218;0.108;2022-11-15T06:07:44;4;2;
70241;PMS5003;57631;52.218;0.108;2022-11-15T06:10:09;3;3;
70241;PMS5003;57631;52.218;0.108;2022-11-15T06:12:35;1;1;
70241;PMS5003;57631;52.218;0.108;2022-11-15T06:15:00;7;3;
70241;PMS5003;57631;52.218;0.108;2022-11-15T06:17:26;7;4;
70241;PMS5003;57631;52.218;0.108;2022-11-15T06:19:51;4;3;
70241;PMS5003;57631;52.218;0.108;2022-11-15T06:22:17;3;3;
70241;PMS5003;57631;52.218;0.108;2022-11-15T06:24:42;4;2;
70241;PMS5003;57631;52.218;0.108;2022-11-15T06:27:08;6;3;
70241;PMS5003;57631;52.218;0.108;2022-11-15T06:29:34;3;3;
70241;PMS5003;57631;52.218;0.108;2022-11-15T06:32:00;4;2;
70241;PMS5003;57631;52.218;0.108;2022-11-15T06:34:25;7;3;
70241;PMS5003;57631;52.218;0.108;2022-11-15T06:36:50;6;4;
70241;PMS5003;57631;52.218;0.108;2022-11-15T06:39:15;7;5;
70241;PMS5003;57631;52.218;0.108;2022-11-15T06:41:41;3;2;
70241;PMS5003;57631;52.218;0.108;2022-11-15T06:44:06;12;10;
70241;PMS5003;57631;52.218;0.108;2022-11-15T06:46:31;8;4;
70241;PMS5003;57631;52.218;0.108;2022-11-15T06:48:57;7;5;
70241;PMS5003;57631;52.218;0.108;2022-11-15T06:51:22;7;5;
70241;PMS5003;57631;52.218;0.108;2022-11-15T06:53:48;3;3;
70241;PMS5003;57631;52.218;0.108;2022-11-15T06:56:13;8;5;
70241;PMS5003;57631;52.218;0.108;2022-11-15T06:58:39;5;2;
70241;PMS5003;57631;52.218;0.108;2022-11-15T07:01:05;7;4;
70241;PMS5003;57631;52.218;0.108;2022-11-15T07:03:30;3;2;
70241;PMS5003;57631;52.218;0.108;2022-11-15T07:05:56;2;2;
70241;PMS5003;57631;52.218;0.108;2022-11-15T07:08:21;7;5;
70241;PMS5003;57631;52.218;0.108;2022-11-15T07:10:46;8;5;
70241;PMS5003;57631;52.218;0.108;2022-11-15T07:13:11;5;5;
70241;PMS5003;57631;52.218;0.108;2022-11-15T07:15:37;5;2;
70241;PMS5003;57631;52.218;0.108;2022-11-15T07:18:02;5;4;
70241;PMS5003;57631;52.218;0.108;2022-11-15T07:20:28;8;4;
70241;PMS5003;57631;52.218;0.108;2022-11-15T07:25:18;6;3;
70241;PMS5003;57631;52.218;0.108;2022-11-15T07:27:44;6;4;
70241;PMS5003;57631;52.218;0.108;2022-11-15T07:30:10;7;4;
70241;PMS5003;57631;52.218;0.108;2022-11-15T07:32:35;7;5;
70241;PMS5003;57631;52.218;0.108;2022-11-15T07:35:00;8;4;
70241;PMS5003;57631;52.218;0.108;2022-11-15T07:37:26;4;3;
70241;PMS5003;57631;52.218;0.108;2022-11-15T07:39:51;7;4;
70241;PMS5003;57631;52.218;0.108;2022-11-15T07:42:17;7;4;
70241;PMS5003;57631;52.218;0.108;2022-11-15T07:44:42;6;3;
70241;PMS5003;57631;52.218;0.108;2022-11-15T07:47:07;6;4;
70241;PMS5003;57631;52.218;0.108;2022-11-15T07:49:33;5;4;
70241;PMS5003;57631;52.218;0.108;2022-11-15T07:51:59;8;7;
70241;PMS5003;57631;52.218;0.108;2022-11-15T07:54:24;6;4;
70241;PMS5003;57631;52.218;0.108;2022-11-15T07:56:49;7;4;
70241;PMS5003;57631;52.218;0.108;2022-11-15T07:59:15;3;2;
70241;PMS5003;57631;52.218;0.108;2022-11-15T08:01:40;3;3;
70241;PMS5003;57631;52.218;0.108;2022-11-15T08:04:06;7;4;
70241;PMS5003;57631;52.218;0.108;2022-11-15T08:06:31;11;4;
70241;PMS5003;57631;52.218;0.108;2022-11-15T08:08:57;7;4;
70241;PMS5003;57631;52.218;0.108;2022-11-15T08:11:22;6;5;
70241;PMS5003;57631;52.218;0.108;2022-11-15T08:13:47;6;5;
70241;PMS5003;57631;52.218;0.108;2022-11-15T08:16:13;8;6;
70241;PMS5003;57631;52.218;0.108;2022-11-15T08:18:39;3;3;
70241;PMS5003;57631;52.218;0.108;2022-11-15T08:21:04;7;6;
70241;PMS5003;57631;52.218;0.108;2022-11-15T08:23:30;10;5;
70241;PMS5003;57631;52.218;0.108;2022-11-15T08:25:58;6;4;
70241;PMS5003;57631;52.218;0.108;2022-11-15T08:28:20;11;5;
70241;PMS5003;57631;52.218;0.108;2022-11-15T08:30:46;4;3;
70241;PMS5003;57631;52.218;0.108;2022-11-15T08:33:12;14;6;
70241;PMS5003;57631;52.218;0.108;2022-11-15T08:35:37;8;4;
70241;PMS5003;57631;52.218;0.108;2022-11-15T08:38:02;7;4;
70241;PMS5003;57631;52.218;0.108;2022-11-15T08:40:28;14;9;
70241;PMS5003;57631;52.218;0.108;2022-11-15T08:42:53;11;5;
70241;PMS5003;57631;52.218;0.108;2022-11-15T08:45:18;5;5;
70241;PMS5003;57631;52.218;0.108;2022-11-15T08:47:44;10;7;
70241;PMS5003;57631;52.218;0.108;2022-11-15T08:50:09;4;4;
70241;PMS5003;57631;52.218;0.108;2022-11-15T08:52:35;6;5;
70241;PMS5003;57631;52.218;0.108;2022-11-15T08:55:00;7;6;
70241;PMS5003;57631;52.218;0.108;2022-11-15T08:57:28;3;3;
70241;PMS5003;57631;52.218;0.108;2022-11-15T08:59:51;8;7;
70241;PMS5003;57631;52.218;0.108;2022-11-15T09:02:17;5;5;
70241;PMS5003;57631;52.218;0.108;2022-11-15T09:04:42;8;7;
70241;PMS5003;57631;52.218;0.108;2022-11-15T09:07:07;10;7;
70241;PMS5003;57631;52.218;0.108;2022-11-15T09:09:32;9;7;
70241;PMS5003;57631;52.218;0.108;2022-11-15T09:11:57;10;7;
70241;PMS5003;57631;52.218;0.108;2022-11-15T09:14:22;9;6;
70241;PMS5003;57631;52.218;0.108;2022-11-15T09:16:48;8;7;
70241;PMS5003;57631;52.218;0.108;2022-11-15T09:19:13;7;6;
70241;PMS5003;57631;52.218;0.108;2022-11-15T09:21:39;10;8;
70241;PMS5003;57631;52.218;0.108;2022-11-15T09:24:05;12;7;
70241;PMS5003;57631;52.218;0.108;2022-11-15T09:26:30;15;10;
70241;PMS5003;57631;52.218;0.108;2022-11-15T09:28:55;11;7;
70241;PMS5003;57631;52.218;0.108;2022-11-15T09:31:21;14;7;
70241;PMS5003;57631;52.218;0.108;2022-11-15T09:33:46;11;8;
70241;PMS5003;57631;52.218;0.108;2022-11-15T09:36:11;9;6;
70241;PMS5003;57631;52.218;0.108;2022-11-15T09:38:37;11;10;
70241;PMS5003;57631;52.218;0.108;2022-11-15T09:43:29;11;7;
70241;PMS5003;57631;52.218;0.108;2022-11-15T09:45:55;9;6;
70241;PMS5003;57631;52.218;0.108;2022-11-15T09:48:24;10;8;
70241;PMS5003;57631;52.218;0.108;2022-11-15T09:50:44;10;7;
70241;PMS5003;57631;52.218;0.108;2022-11-15T09:53:10;9;8;
70241;PMS5003;57631;52.218;0.108;2022-11-15T09:55:37;9;6;
70241;PMS5003;57631;52.218;0.108;2022-11-15T09:58:00;13;9;
70241;PMS5003;57631;52.218;0.108;2022-11-15T10:00:27;11;9;
70241;PMS5003;57631;52.218;0.108;2022-11-15T10:02:55;8;6;
70241;PMS5003;57631;52.218;0.108;2022-11-15T10:05:16;10;7;
70241;PMS5003;57631;52.218;0.108;2022-11-15T10:07:44;8;7;
70241;PMS5003;57631;52.218;0.108;2022-11-15T10:10:10;6;6;
70241;PMS5003;57631;52.218;0.108;2022-11-15T10:12:31;9;7;
70241;PMS5003;57631;52.218;0.108;2022-11-15T10:14:58;8;5;
70241;PMS5003;57631;52.218;0.108;2022-11-15T10:17:28;9;7;
70241;PMS5003;57631;52.218;0.108;2022-11-15T10:19:52;8;6;
70241;PMS5003;57631;52.218;0.108;2022-11-15T10:22:17;8;7;
70241;PMS5003;57631;52.218;0.108;2022-11-15T10:24:39;6;6;
70241;PMS5003;57631;52.218;0.108;2022-11-15T10:27:06;7;6;
70241;PMS5003;57631;52.218;0.108;2022-11-15T10:29:29;6;6;
70241;PMS5003;57631;52.218;0.108;2022-11-15T10:31:54;8;5;
70241;PMS5003;57631;52.218;0.108;2022-11-15T10:34:20;8;7;
70241;PMS5003;57631;52.218;0.108;2022-11-15T10:36:45;8;5;
70241;PMS5003;57631;52.218;0.108;2022-11-15T10:39:11;8;5;
70241;PMS5003;57631;52.218;0.108;2022-11-15T10:41:37;7;5;
70241;PMS5003;57631;52.218;0.108;2022-11-15T10:44:07;7;6;
70241;PMS5003;57631;52.218;0.108;2022-11-15T10:46:27;7;6;
70241;PMS5003;57631;52.218;0.108;2022-11-15T10:48:52;5;5;
70241;PMS5003;57631;52.218;0.108;2022-11-15T10:51:19;8;5;
70241;PMS5003;57631;52.218;0.108;2022-11-15T10:53:43;4;4;
70241;PMS5003;57631;52.218;0.108;2022-11-15T10:56:12;4;4;
70241;PMS5003;57631;52.218;0.108;2022-11-15T10:58:35;6;4;
70241;PMS5003;57631;52.218;0.108;2022-11-15T11:03:28;3;3;
70241;PMS5003;57631;52.218;0.108;2022-11-15T11:05:50;7;5;
70241;PMS5003;57631;52.218;0.108;2022-11-15T11:08:20;4;4;
70241;PMS5003;57631;52.218;0.108;2022-11-15T11:10:43;6;4;
70241;PMS5003;57631;52.218;0.108;2022-11-15T11:15:32;6;3;
70241;PMS5003;57631;52.218;0.108;2022-11-15T11:17:59;2;2;
70241;PMS5003;57631;52.218;0.108;2022-11-15T11:20:24;4;4;
70241;PMS5003;57631;52.218;0.108;2022-11-15T11:22:54;2;2;
70241;PMS5003;57631;52.218;0.108;2022-11-15T11:25:18;3;2;
70241;PMS5003;57631;52.218;0.108;2022-11-15T11:27:42;4;3;
70241;PMS5003;57631;52.218;0.108;2022-11-15T11:30:08;3;3;
70241;PMS5003;57631;52.218;0.108;2022-11-15T11:32:34;2;2;
70241;PMS5003;57631;52.218;0.108;2022-11-15T11:34:57;4;4;
70241;PMS5003;57631;52.218;0.108;2022-11-15T11:37:24;2;2;
70241;PMS5003;57631;52.218;0.108;2022-11-15T11:39:49;1;1;
70241;PMS5003;57631;52.218;0.108;2022-11-15T11:42:14;4;3;
70241;PMS5003;57631;52.218;0.108;2022-11-15T11:44:41;2;2;
70241;PMS5003;57631;52.218;0.108;2022-11-15T11:47:03;2;2;
70241;PMS5003;57631;52.218;0.108;2022-11-15T11:49:30;0;0;
70241;PMS5003;57631;52.218;0.108;2022-11-15T11:51:54;0;0;
70241;PMS5003;57631;52.218;0.108;2022-11-15T11:54:20;4;2;
70241;PMS5003;57631;52.218;0.108;2022-11-15T11:56:45;1;1;
70241;PMS5003;57631;52.218;0.108;2022-11-15T11:59:12;3;2;
70241;PMS5003;57631;52.218;0.108;2022-11-15T12:01:37;3;3;
70241;PMS5003;57631;52.218;0.108;2022-11-15T12:04:03;2;2;
70241;PMS5003;57631;52.218;0.108;2022-11-15T12:06:30;2;1;
70241;PMS5003;57631;52.218;0.108;2022-11-15T12:08:53;1;1;
70241;PMS5003;57631;52.218;0.108;2022-11-15T12:11:19;2;2;
70241;PMS5003;57631;52.218;0.108;2022-11-15T12:13:43;2;2;
70241;PMS5003;57631;52.218;0.108;2022-11-15T12:16:11;1;1;
70241;PMS5003;57631;52.218;0.108;2022-11-15T12:18:34;3;1;
70241;PMS5003;57631;52.218;0.108;2022-11-15T12:21:00;1;1;
70241;PMS5003;57631;52.218;0.108;2022-11-15T12:23:26;2;2;
70241;PMS5003;57631;52.218;0.108;2022-11-15T12:25:51;2;2;
70241;PMS5003;57631;52.218;0.108;2022-11-15T12:28:17;3;2;
70241;PMS5003;57631;52.218;0.108;2022-11-15T12:30:43;2;2;
70241;PMS5003;57631;52.218;0.108;2022-11-15T12:33:15;1;1;
70241;PMS5003;57631;52.218;0.108;2022-11-15T12:35:34;3;1;
70241;PMS5003;57631;52.218;0.108;2022-11-15T12:37:58;3;1;
70241;PMS5003;57631;52.218;0.108;2022-11-15T12:40:25;3;1;
70241;PMS5003;57631;52.218;0.108;2022-11-15T12:47:39;3;2;
70241;PMS5003;57631;52.218;0.108;2022-11-15T12:50:11;3;1;
70241;PMS5003;57631;52.218;0.108;2022-11-15T12:52:30;1;1;
70241;PMS5003;57631;52.218;0.108;2022-11-15T12:54:57;1;1;
70241;PMS5003;57631;52.218;0.108;2022-11-15T12:57:27;1;0;
70241;PMS5003;57631;52.218;0.108;2022-11-15T12:59:47;1;1;
70241;PMS5003;57631;52.218;0.108;2022-11-15T13:02:17;2;1;
70241;PMS5003;57631;52.218;0.108;2022-11-15T13:04:38;1;1;
70241;PMS5003;57631;52.218;0.108;2022-11-15T13:07:04;1;1;
70241;PMS5003;57631;52.218;0.108;2022-11-15T13:11:54;1;1;
70241;PMS5003;57631;52.218;0.108;2022-11-15T13:16:45;1;1;
70241;PMS5003;57631;52.218;0.108;2022-11-15T13:19:10;1;1;
70241;PMS5003;57631;52.218;0.108;2022-11-15T13:21:36;2;2;
70241;PMS5003;57631;52.218;0.108;2022-11-15T13:24:01;0;0;
70241;PMS5003;57631;52.218;0.108;2022-11-15T13:26:26;1;1;
70241;PMS5003;57631;52.218;0.108;2022-11-15T13:28:52;3;1;
70241;PMS5003;57631;52.218;0.108;2022-11-15T13:31:19;2;2;
70241;PMS5003;57631;52.218;0.108;2022-11-15T13:33:43;0;0;
70241;PMS5003;57631;52.218;0.108;2022-11-15T13:36:18;2;1;
70241;PMS5003;57631;52.218;0.108;2022-11-15T13:38:34;1;1;
70241;PMS5003;57631;52.218;0.108;2022-11-15T13:41:00;1;1;
70241;PMS5003;57631;52.218;0.108;2022-11-15T13:43:27;2;1;
70241;PMS5003;57631;52.218;0.108;2022-11-15T13:48:15;4;2;
70241;PMS5003;57631;52.218;0.108;2022-11-15T13:50:41;2;2;
70241;PMS5003;57631;52.218;0.108;2022-11-15T13:53:06;3;3;
70241;PMS5003;57631;52.218;0.108;2022-11-15T13:55:32;2;2;
70241;PMS5003;57631;52.218;0.108;2022-11-15T13:57:58;4;2;
70241;PMS5003;57631;52.218;0.108;2022-11-15T14:00:25;3;2;
70241;PMS5003;57631;52.218;0.108;2022-11-15T14:02:48;4;4;
70241;PMS5003;57631;52.218;0.108;2022-11-15T14:05:15;1;1;
70241;PMS5003;57631;52.218;0.108;2022-11-15T14:07:39;1;1;
70241;PMS5003;57631;52.218;0.108;2022-11-15T14:12:31;2;2;
70241;PMS5003;57631;52.218;0.108;2022-11-15T14:14:56;2;2;
70241;PMS5003;57631;52.218;0.108;2022-11-15T14:17:21;1;1;
70241;PMS5003;57631;52.218;0.108;2022-11-15T14:19:46;1;1;
70241;PMS5003;57631;52.218;0.108;2022-11-15T14:24:37;3;1;
70241;PMS5003;57631;52.218;0.108;2022-11-15T14:29:28;1;1;
70241;PMS5003;57631;52.218;0.108;2022-11-15T14:31:54;1;1;
70241;PMS5003;57631;52.218;0.108;2022-11-15T14:34:19;1;1;
70241;PMS5003;57631;52.218;0.108;2022-11-15T14:36:44;2;2;
70241;PMS5003;57631;52.218;0.108;2022-11-15T14:39:10;2;2;
70241;PMS5003;57631;52.218;0.108;2022-11-15T14:41:36;5;1;
70241;PMS5003;57631;52.218;0.108;2022-11-15T14:44:01;4;3;
70241;PMS5003;57631;52.218;0.108;2022-11-15T14:46:26;4;2;
70241;PMS5003;57631;52.218;0.108;2022-11-15T14:48:52;5;4;
70241;PMS5003;57631;52.218;0.108;2022-11-15T14:51:17;5;2;
70241;PMS5003;57631;52.218;0.108;2022-11-15T14:53:43;1;1;
70241;PMS5003;57631;52.218;0.108;2022-11-15T14:56:09;4;2;
70241;PMS5003;57631;52.218;0.108;2022-11-15T14:58:34;4;2;
70241;PMS5003;57631;52.218;0.108;2022-11-15T15:00:59;3;1;
70241;PMS5003;57631;52.218;0.108;2022-11-15T15:03:25;2;2;
70241;PMS5003;57631;52.218;0.108;2022-11-15T15:05:50;2;2;
70241;PMS5003;57631;52.218;0.108;2022-11-15T15:08:16;3;1;
70241;PMS5003;57631;52.218;0.108;2022-11-15T15:10:42;3;2;
70241;PMS5003;57631;52.218;0.108;2022-11-15T15:13:08;2;1;
70241;PMS5003;57631;52.218;0.108;2022-11-15T15:15:32;0;0;
70241;PMS5003;57631;52.218;0.108;2022-11-15T15:17:57;1;1;
70241;PMS5003;57631;52.218;0.108;2022-11-15T15:20:23;2;2;
70241;PMS5003;57631;52.218;0.108;2022-11-15T15:22:48;3;2;
70241;PMS5003;57631;52.218;0.108;2022-11-15T15:25:21;2;2;
70241;PMS5003;57631;52.218;0.108;2022-11-15T15:27:39;1;1;
70241;PMS5003;57631;52.218;0.108;2022-11-15T15:30:05;1;1;
70241;PMS5003;57631;52.218;0.108;2022-11-15T15:32:30;3;2;
70241;PMS5003;57631;52.218;0.108;2022-11-15T15:34:55;2;1;
70241;PMS5003;57631;52.218;0.108;2022-11-15T15:37:22;1;1;
70241;PMS5003;57631;52.218;0.108;2022-11-15T15:39:46;4;2;
70241;PMS5003;57631;52.218;0.108;2022-11-15T15:42:11;2;2;
70241;PMS5003;57631;52.218;0.108;2022-11-15T15:44:37;2;2;
70241;PMS5003;57631;52.218;0.108;2022-11-15T15:47:04;1;1;
70241;PMS5003;57631;52.218;0.108;2022-11-15T15:49:28;2;2;
70241;PMS5003;57631;52.218;0.108;2022-11-15T15:51:53;4;1;
70241;PMS5003;57631;52.218;0.108;2022-11-15T15:54:18;1;1;
70241;PMS5003;57631;52.218;0.108;2022-11-15T15:56:44;1;1;
70241;PMS5003;57631;52.218;0.108;2022-11-15T15:59:09;2;1;
70241;PMS5003;57631;52.218;0.108;2022-11-15T16:01:35;1;1;
70241;PMS5003;57631;52.218;0.108;2022-11-15T16:04:00;1;0;
70241;PMS5003;57631;52.218;0.108;2022-11-15T16:06:32;1;1;
70241;PMS5003;57631;52.218;0.108;2022-11-15T16:08:51;4;1;
70241;PMS5003;57631;52.218;0.108;2022-11-15T16:11:16;3;1;
70241;PMS5003;57631;52.218;0.108;2022-11-15T16:13:42;2;2;
70241;PMS5003;57631;52.218;0.108;2022-11-15T16:16:07;2;1;
70241;PMS5003;57631;52.218;0.108;2022-11-15T16:18:33;2;2;
70241;PMS5003;57631;52.218;0.108;2022-11-15T16:20:58;2;1;
70241;PMS5003;57631;52.218;0.108;2022-11-15T16:23:23;1;1;
70241;PMS5003;57631;52.218;0.108;2022-11-15T16:25:49;0;0;
70241;PMS5003;57631;52.218;0.108;2022-11-15T16:28:17;4;1;
70241;PMS5003;57631;52.218;0.108;2022-11-15T16:30:40;1;1;
70241;PMS5003;57631;52.218;0.108;2022-11-15T16:33:05;1;1;
70241;PMS5003;57631;52.218;0.108;2022-11-15T16:35:31;2;2;
70241;PMS5003;57631;52.218;0.108;2022-11-15T16:37:56;4;2;
70241;PMS5003;57631;52.218;0.108;2022-11-15T16:40:24;2;2;
70241;PMS5003;57631;52.218;0.108;2022-11-15T16:42:47;2;1;
70241;PMS5003;57631;52.218;0.108;2022-11-15T16:45:12;0;0;
70241;PMS5003;57631;52.218;0.108;2022-11-15T16:47:38;0;0;
70241;PMS5003;57631;52.218;0.108;2022-11-15T16:50:03;2;2;
70241;PMS5003;57631;52.218;0.108;2022-11-15T16:52:29;2;2;
70241;PMS5003;57631;52.218;0.108;2022-11-15T16:54:54;0;0;
70241;PMS5003;57631;52.218;0.108;2022-11-15T16:57:19;4;1;
70241;PMS5003;57631;52.218;0.108;2022-11-15T16:59:45;0;0;
70241;PMS5003;57631;52.218;0.108;2022-11-15T17:02:10;0;0;
70241;PMS5003;57631;52.218;0.108;2022-11-15T17:04:36;1;1;
70241;PMS5003;57631;52.218;0.108;2022-11-15T17:07:01;1;1;
70241;PMS5003;57631;52.218;0.108;2022-11-15T17:09:27;1;1;
70241;PMS5003;57631;52.218;0.108;2022-11-15T17:11:52;1;1;